createdAt,value
2023-03-29T00:02:34.425Z,56.94
2023-03-29T00:05:41.139Z,57.20
2023-03-29T00:08:46.185Z,57.01
2023-03-29T00:11:50.512Z,57.12
2023-03-29T00:14:54.597Z,57.17
2023-03-29T00:17:58.707Z,57.22
2023-03-29T00:21:02.945Z,57.06
2023-03-29T00:24:07.394Z,57.29
2023-03-29T00:27:11.313Z,57.04
2023-03-29T00:30:16.038Z,57.00
2023-03-29T00:33:23.476Z,56.78
2023-03-29T00:36:27.865Z,56.63
2023-03-29T00:39:32.060Z,56.86
2023-03-29T00:42:36.424Z,56.66
2023-03-29T00:45:40.829Z,56.60
2023-03-29T00:48:45.147Z,56.42
2023-03-29T00:51:49.345Z,56.68
2023-03-29T00:54:56.173Z,56.69
2023-03-29T00:58:02.748Z,56.49
2023-03-29T01:01:19.395Z,56.58
2023-03-29T01:04:32.366Z,56.57
2023-03-29T01:07:49.592Z,56.66
2023-03-29T01:10:58.890Z,56.91
2023-03-29T01:14:06.572Z,57.04
2023-03-29T01:17:11.170Z,57.18
2023-03-29T01:20:46.401Z,57.19
2023-03-29T01:23:58.529Z,57.40
2023-03-29T01:27:08.637Z,57.38
2023-03-29T01:30:18.359Z,57.59
2023-03-29T01:33:25.769Z,57.88
2023-03-29T01:36:40.506Z,57.93
2023-03-29T01:39:44.437Z,57.85
2023-03-29T01:43:00.825Z,58.32
2023-03-29T01:46:15.186Z,58.47
2023-03-29T01:49:45.533Z,58.57
2023-03-29T01:52:56.491Z,58.86
2023-03-29T01:56:04.690Z,59.20
2023-03-29T01:59:13.987Z,59.36
2023-03-29T02:02:19.325Z,59.72
2023-03-29T02:05:24.562Z,59.84
2023-03-29T02:08:29.972Z,60.17
2023-03-29T02:11:36.349Z,60.27
2023-03-29T02:14:40.664Z,60.61
2023-03-29T02:17:45.014Z,60.86
2023-03-29T02:20:51.225Z,60.82
2023-03-29T02:23:58.897Z,61.16
2023-03-29T02:27:03.995Z,61.31
2023-03-29T02:30:11.164Z,61.36
2023-03-29T02:33:25.441Z,61.69
2023-03-29T02:36:47.465Z,61.93
2023-03-29T02:39:53.120Z,62.13
2023-03-29T02:43:01.087Z,62.01
2023-03-29T02:46:07.730Z,62.13
2023-03-29T02:49:12.176Z,62.17
2023-03-29T02:52:22.208Z,62.29
2023-03-29T02:55:31.440Z,62.24
2023-03-29T02:58:36.892Z,62.51
2023-03-29T03:01:44.090Z,62.44
2023-03-29T03:04:48.390Z,62.58
2023-03-29T03:07:52.824Z,62.79
2023-03-29T03:10:56.825Z,63.08
2023-03-29T03:14:02.091Z,62.94
2023-03-29T03:17:06.105Z,63.19
2023-03-29T03:20:13.291Z,63.51
2023-03-29T03:23:17.766Z,63.41
2023-03-29T03:26:24.931Z,63.63
2023-03-29T03:29:29.150Z,63.76
2023-03-29T03:32:43.737Z,63.91
2023-03-29T03:36:10.285Z,63.89
2023-03-29T03:39:14.395Z,64.10
2023-03-29T03:42:19.791Z,64.35
2023-03-29T03:45:24.849Z,64.31
2023-03-29T03:48:46.983Z,64.73
2023-03-29T03:52:00.316Z,64.74
2023-03-29T03:55:05.343Z,64.78
2023-03-29T03:58:19.928Z,64.89
2023-03-29T04:01:24.585Z,64.88
2023-03-29T04:04:36.435Z,64.89
2023-03-29T04:07:46.937Z,64.87
2023-03-29T04:11:10.794Z,64.95
2023-03-29T04:14:16.776Z,64.92
2023-03-29T04:17:38.675Z,65.22
2023-03-29T04:20:56.002Z,65.20
2023-03-29T04:24:00.380Z,65.29
2023-03-29T04:27:04.742Z,65.48
2023-03-29T04:30:10.087Z,65.40
2023-03-29T04:33:47.623Z,65.77
2023-03-29T04:36:52.078Z,65.95
2023-03-29T04:40:00.455Z,65.99
2023-03-29T04:43:06.532Z,66.35
2023-03-29T04:46:11.183Z,66.30
2023-03-29T04:49:42.158Z,66.48
2023-03-29T04:52:50.934Z,66.78
2023-03-29T04:55:55.761Z,66.65
2023-03-29T04:59:16.888Z,66.54
2023-03-29T05:02:22.134Z,66.34
2023-03-29T05:05:28.078Z,66.22
2023-03-29T05:08:40.284Z,65.94
2023-03-29T05:11:49.128Z,66.12
2023-03-29T05:14:53.862Z,66.10
2023-03-29T05:18:01.010Z,66.20
2023-03-29T05:21:06.410Z,66.18
2023-03-29T05:24:11.143Z,65.97
2023-03-29T05:27:23.132Z,66.15
2023-03-29T05:30:38.230Z,65.81
2023-03-29T05:33:57.172Z,65.66
2023-03-29T05:37:02.735Z,66.01
2023-03-29T05:40:13.401Z,65.78
2023-03-29T05:43:46.763Z,65.80
2023-03-29T05:46:51.210Z,65.69
2023-03-29T05:49:55.546Z,65.81
2023-03-29T05:53:00.191Z,65.56
2023-03-29T05:56:07.020Z,65.40
2023-03-29T05:59:11.588Z,65.23
2023-03-29T06:02:16.891Z,64.93
2023-03-29T06:05:25.965Z,64.98
2023-03-29T06:08:35.419Z,64.54
2023-03-29T06:11:58.994Z,64.64
2023-03-29T06:15:10.399Z,64.38
2023-03-29T06:18:21.575Z,64.10
2023-03-29T06:21:27.424Z,64.13
2023-03-29T06:24:32.498Z,63.85
2023-03-29T06:27:41.396Z,63.56
2023-03-29T06:30:46.741Z,63.88
2023-03-29T06:33:51.008Z,63.75
2023-03-29T06:37:14.386Z,63.60
2023-03-29T06:40:21.285Z,63.51
2023-03-29T06:43:26.296Z,62.86
2023-03-29T06:46:32.487Z,63.37
2023-03-29T06:49:39.714Z,62.99
2023-03-29T06:53:04.626Z,62.78
2023-03-29T06:56:09.871Z,62.72
2023-03-29T06:59:22.479Z,62.15
2023-03-29T07:02:32.327Z,61.99
2023-03-29T07:06:02.869Z,61.82
2023-03-29T07:09:08.022Z,61.61
2023-03-29T07:12:34.837Z,61.37
2023-03-29T07:15:41.130Z,61.09
2023-03-29T07:18:56.715Z,61.21
2023-03-29T07:22:29.693Z,60.97
2023-03-29T07:25:38.460Z,61.03
2023-03-29T07:28:43.214Z,60.41
2023-03-29T07:31:47.167Z,59.71
2023-03-29T07:35:13.537Z,59.43
2023-03-29T07:38:18.665Z,59.00
2023-03-29T07:41:31.075Z,59.16
2023-03-29T07:44:41.754Z,58.38
2023-03-29T07:47:47.684Z,57.97
2023-03-29T07:50:51.703Z,57.16
2023-03-29T07:53:59.966Z,56.36
2023-03-29T07:57:17.122Z,56.33
2023-03-29T08:00:28.048Z,56.78
2023-03-29T08:03:48.963Z,56.42
2023-03-29T08:06:54.403Z,55.03
2023-03-29T08:09:59.665Z,53.98
2023-03-29T08:13:15.121Z,52.77
2023-03-29T08:16:27.809Z,52.48
2023-03-29T08:19:58.195Z,51.45
2023-03-29T08:23:02.624Z,50.81
2023-03-29T08:26:31.526Z,49.71
2023-03-29T08:29:35.946Z,49.77
2023-03-29T08:32:39.986Z,48.28
2023-03-29T08:35:45.204Z,46.83
2023-03-29T08:38:57.636Z,45.47
2023-03-29T08:42:35.015Z,44.43
2023-03-29T08:46:00.139Z,43.22
2023-03-29T08:49:07.118Z,42.78
2023-03-29T08:52:20.477Z,42.08
2023-03-29T08:55:37.053Z,42.23
2023-03-29T08:58:58.447Z,41.38
2023-03-29T09:02:15.009Z,39.65
2023-03-29T09:05:40.630Z,40.28
2023-03-29T09:09:03.817Z,38.86
2023-03-29T09:12:14.340Z,39.01
2023-03-29T09:15:24.307Z,38.17
2023-03-29T09:19:16.447Z,36.06
2023-03-29T09:22:48.519Z,36.48
2023-03-29T09:26:10.350Z,35.46
2023-03-29T09:29:44.064Z,35.05
2023-03-29T09:33:10.369Z,34.88
2023-03-29T09:37:07.868Z,34.31
2023-03-29T09:40:22.008Z,34.98
2023-03-29T09:43:37.908Z,33.91
2023-03-29T09:46:51.974Z,31.50
2023-03-29T09:50:19.824Z,31.72
2023-03-29T09:53:34.203Z,31.28
2023-03-29T09:56:48.027Z,31.45
2023-03-29T09:59:57.420Z,30.05
2023-03-29T10:03:01.781Z,30.11
2023-03-29T10:06:21.600Z,28.26
2023-03-29T10:09:30.816Z,28.80
2023-03-29T10:12:50.413Z,28.70
2023-03-29T10:16:03.708Z,28.20
2023-03-29T10:19:28.146Z,28.81
2023-03-29T10:22:35.255Z,29.02
2023-03-29T10:25:42.496Z,30.64
2023-03-29T10:28:47.222Z,30.05
2023-03-29T10:31:52.223Z,30.10
2023-03-29T10:35:05.896Z,31.58
2023-03-29T10:38:15.039Z,32.47
2023-03-29T10:41:21.843Z,32.46
2023-03-29T10:44:35.013Z,32.36
2023-03-29T10:47:39.289Z,32.58
2023-03-29T10:50:49.516Z,32.17
2023-03-29T10:53:53.521Z,31.72
2023-03-29T10:57:01.427Z,32.32
2023-03-29T11:00:20.491Z,31.34
2023-03-29T11:03:40.686Z,32.27
2023-03-29T11:06:59.829Z,32.89
2023-03-29T11:10:29.163Z,33.35
2023-03-29T11:13:59.426Z,32.54
2023-03-29T11:17:19.466Z,31.20
2023-03-29T11:20:29.071Z,31.78
2023-03-29T11:23:59.374Z,31.43
2023-03-29T11:27:23.318Z,30.82
2023-03-29T11:30:42.428Z,30.00
2023-03-29T11:34:14.682Z,30.14
2023-03-29T11:37:46.533Z,30.25
2023-03-29T11:41:12.670Z,29.53
2023-03-29T11:44:31.742Z,27.78
2023-03-29T11:47:41.008Z,28.74
2023-03-29T11:50:54.138Z,27.89
2023-03-29T11:54:07.439Z,27.98
2023-03-29T11:57:32.151Z,28.01
2023-03-29T12:00:40.674Z,27.63
2023-03-29T12:03:52.954Z,27.75
2023-03-29T12:07:12.059Z,28.27
2023-03-29T12:10:27.464Z,26.97
2023-03-29T12:13:36.875Z,26.20
2023-03-29T12:16:54.888Z,26.80
2023-03-29T12:20:19.398Z,27.11
2023-03-29T12:23:24.237Z,27.26
2023-03-29T12:26:38.190Z,27.43
2023-03-29T12:30:04.040Z,26.91
2023-03-29T12:33:46.749Z,26.24
2023-03-29T12:37:11.165Z,25.96
2023-03-29T12:40:58.865Z,26.12
2023-03-29T12:44:24.025Z,24.93
2023-03-29T12:47:43.609Z,25.20
2023-03-29T12:51:00.898Z,24.93
2023-03-29T12:54:24.973Z,25.64
2023-03-29T12:57:47.740Z,25.41
2023-03-29T13:01:06.580Z,25.71
2023-03-29T13:04:18.461Z,24.94
2023-03-29T13:07:22.680Z,24.66
2023-03-29T13:10:50.808Z,24.54
2023-03-29T13:13:55.871Z,24.87
2023-03-29T13:17:17.775Z,24.86
2023-03-29T13:20:44.311Z,24.76
2023-03-29T13:24:16.027Z,25.89
2023-03-29T13:27:49.807Z,25.91
2023-03-29T13:31:12.411Z,26.24
2023-03-29T13:34:35.521Z,26.05
2023-03-29T13:37:57.254Z,26.14
2023-03-29T13:41:23.490Z,26.65
2023-03-29T13:44:46.149Z,26.30
2023-03-29T13:48:05.373Z,26.68
2023-03-29T13:51:13.093Z,27.24
2023-03-29T13:54:40.837Z,26.51
2023-03-29T13:57:56.988Z,26.42
2023-03-29T14:01:13.640Z,25.95
2023-03-29T14:04:24.770Z,25.82
2023-03-29T14:07:32.544Z,25.32
2023-03-29T14:10:42.005Z,25.25
2023-03-29T14:13:46.571Z,25.44
2023-03-29T14:16:50.955Z,25.46
2023-03-29T14:19:58.919Z,25.05
2023-03-29T14:23:10.180Z,24.87
2023-03-29T14:26:15.788Z,24.73
2023-03-29T14:29:19.966Z,24.65
2023-03-29T14:32:31.845Z,25.18
2023-03-29T14:35:36.336Z,24.80
2023-03-29T14:38:40.479Z,25.24
2023-03-29T14:41:51.118Z,25.44
2023-03-29T14:45:04.264Z,25.75
2023-03-29T14:48:12.694Z,25.84
2023-03-29T14:51:17.179Z,25.59
2023-03-29T14:54:28.835Z,25.35
2023-03-29T14:57:36.572Z,24.61
2023-03-29T15:00:44.161Z,24.79
2023-03-29T15:04:05.913Z,24.66
2023-03-29T15:07:09.983Z,25.24
2023-03-29T15:10:19.209Z,24.76
2023-03-29T15:13:25.388Z,24.45
2023-03-29T15:16:30.746Z,24.30
2023-03-29T15:19:36.600Z,24.36
2023-03-29T15:22:53.520Z,24.64
2023-03-29T15:26:06.854Z,24.12
2023-03-29T15:29:23.438Z,24.25
2023-03-29T15:32:34.797Z,24.07
2023-03-29T15:35:38.933Z,24.43
2023-03-29T15:38:45.174Z,24.64
2023-03-29T15:41:52.134Z,24.71
2023-03-29T15:44:56.541Z,25.02
2023-03-29T15:48:04.888Z,25.07
2023-03-29T15:51:12.747Z,25.19
2023-03-29T15:54:16.711Z,25.05
2023-03-29T15:57:20.887Z,25.04
2023-03-29T16:00:25.768Z,25.28
2023-03-29T16:03:29.744Z,25.53
2023-03-29T16:06:34.615Z,25.79
2023-03-29T16:09:39.018Z,25.60
2023-03-29T16:12:43.034Z,25.55
2023-03-29T16:15:47.704Z,26.12
2023-03-29T16:18:51.976Z,25.99
2023-03-29T16:21:56.925Z,25.88
2023-03-29T16:25:01.245Z,26.03
2023-03-29T16:28:06.696Z,26.54
2023-03-29T16:31:12.702Z,27.04
2023-03-29T16:34:18.863Z,27.17
2023-03-29T16:37:23.119Z,27.41
2023-03-29T16:40:28.098Z,27.89
2023-03-29T16:43:32.508Z,28.11
2023-03-29T16:46:36.546Z,28.12
2023-03-29T16:49:41.094Z,28.37
2023-03-29T16:52:48.562Z,29.00
2023-03-29T16:55:52.769Z,30.30
2023-03-29T16:58:56.782Z,30.11
2023-03-29T17:02:01.109Z,30.72
2023-03-29T17:05:06.167Z,30.71
2023-03-29T17:08:10.383Z,30.76
2023-03-29T17:11:15.641Z,31.35
2023-03-29T17:14:19.619Z,32.02
2023-03-29T17:17:23.813Z,31.94
2023-03-29T17:20:27.945Z,31.79
2023-03-29T17:23:31.935Z,33.36
2023-03-29T17:26:38.147Z,33.50
2023-03-29T17:29:42.160Z,34.07
2023-03-29T17:32:46.087Z,34.90
2023-03-29T17:35:50.056Z,34.88
2023-03-29T17:38:54.833Z,35.32
2023-03-29T17:41:58.851Z,35.00
2023-03-29T17:45:02.944Z,35.89
2023-03-29T17:48:06.864Z,36.05
2023-03-29T17:51:11.095Z,36.29
2023-03-29T17:54:16.337Z,37.24
2023-03-29T17:57:20.407Z,37.86
2023-03-29T18:00:24.681Z,37.92
2023-03-29T18:03:28.637Z,38.71
2023-03-29T18:06:33.023Z,39.24
2023-03-29T18:09:37.548Z,38.67
2023-03-29T18:12:41.653Z,39.96
2023-03-29T18:15:45.883Z,40.30
2023-03-29T18:18:49.996Z,40.43
2023-03-29T18:21:54.125Z,40.99
2023-03-29T18:24:58.029Z,41.73
2023-03-29T18:28:02.054Z,41.76
2023-03-29T18:31:06.411Z,42.46
2023-03-29T18:34:10.599Z,43.07
2023-03-29T18:37:17.435Z,42.77
2023-03-29T18:40:24.911Z,42.13
2023-03-29T18:43:29.630Z,42.61
2023-03-29T18:46:34.254Z,43.02
2023-03-29T18:49:38.660Z,42.45
2023-03-29T18:52:42.632Z,42.44
2023-03-29T18:55:47.106Z,43.34
2023-03-29T18:58:51.535Z,42.76
2023-03-29T19:01:55.881Z,43.01
2023-03-29T19:04:59.869Z,43.17
2023-03-29T19:08:05.944Z,43.46
2023-03-29T19:11:14.269Z,43.62
2023-03-29T19:14:23.484Z,43.47
2023-03-29T19:17:28.363Z,43.75
2023-03-29T19:20:32.443Z,43.33
2023-03-29T19:23:36.423Z,44.63
2023-03-29T19:26:43.754Z,44.42
2023-03-29T19:29:48.324Z,44.18
2023-03-29T19:32:52.991Z,45.23
2023-03-29T19:35:57.119Z,45.73
2023-03-29T19:39:01.343Z,46.19
2023-03-29T19:42:05.776Z,45.28
2023-03-29T19:45:10.774Z,45.52
2023-03-29T19:48:22.397Z,46.62
2023-03-29T19:51:28.394Z,47.02
2023-03-29T19:54:32.364Z,47.36
2023-03-29T19:57:37.230Z,47.98
2023-03-29T20:00:41.975Z,48.61
2023-03-29T20:03:50.022Z,47.64
2023-03-29T20:06:54.377Z,46.97
2023-03-29T20:09:58.293Z,47.48
2023-03-29T20:13:03.174Z,47.88
2023-03-29T20:16:10.440Z,47.26
2023-03-29T20:19:17.640Z,47.04
2023-03-29T20:22:26.132Z,46.67
2023-03-29T20:25:30.135Z,46.83
2023-03-29T20:28:34.879Z,46.94
2023-03-29T20:31:38.846Z,47.23
2023-03-29T20:34:42.890Z,47.48
2023-03-29T20:37:46.866Z,47.33
2023-03-29T20:40:50.842Z,47.07
2023-03-29T20:44:02.957Z,47.01
2023-03-29T20:47:08.420Z,47.14
2023-03-29T20:50:12.415Z,47.16
2023-03-29T20:53:16.429Z,46.78
2023-03-29T20:56:21.067Z,46.46
2023-03-29T20:59:25.178Z,46.88
2023-03-29T21:02:29.315Z,47.00
2023-03-29T21:05:34.041Z,47.44
2023-03-29T21:08:38.870Z,47.62
2023-03-29T21:11:43.579Z,48.08
2023-03-29T21:14:47.714Z,49.04
2023-03-29T21:17:51.738Z,48.50
2023-03-29T21:20:55.746Z,48.48
2023-03-29T21:23:59.649Z,47.61
2023-03-29T21:27:03.773Z,48.33
2023-03-29T21:30:09.069Z,48.47
2023-03-29T21:33:13.036Z,48.90
2023-03-29T21:36:16.953Z,49.73
2023-03-29T21:39:20.972Z,50.24
2023-03-29T21:42:25.021Z,50.43
2023-03-29T21:45:28.922Z,50.75
2023-03-29T21:48:33.132Z,51.48
2023-03-29T21:51:37.242Z,51.12
2023-03-29T21:54:41.208Z,51.37
2023-03-29T21:57:45.884Z,51.64
2023-03-29T22:00:49.942Z,51.79
2023-03-29T22:03:53.914Z,52.47
2023-03-29T22:06:58.233Z,52.37
2023-03-29T22:10:04.420Z,52.37
2023-03-29T22:13:09.453Z,52.53
2023-03-29T22:16:16.519Z,52.52
2023-03-29T22:19:20.759Z,52.88
2023-03-29T22:22:25.700Z,53.74
2023-03-29T22:25:29.708Z,54.10
2023-03-29T22:28:36.703Z,53.98
2023-03-29T22:31:41.064Z,53.19
2023-03-29T22:34:45.127Z,52.29
2023-03-29T22:37:49.063Z,52.46
2023-03-29T22:40:53.202Z,53.26
2023-03-29T22:43:58.978Z,53.72
2023-03-29T22:47:03.027Z,54.00
2023-03-29T22:50:08.086Z,53.97
2023-03-29T22:53:12.091Z,53.61
2023-03-29T22:56:17.262Z,52.18
2023-03-29T22:59:21.530Z,50.91
2023-03-29T23:02:25.499Z,51.50
2023-03-29T23:05:29.794Z,51.25
2023-03-29T23:08:35.061Z,50.90
2023-03-29T23:11:38.958Z,49.89
2023-03-29T23:14:45.221Z,49.47
2023-03-29T23:17:49.690Z,49.37
2023-03-29T23:20:55.710Z,49.25
2023-03-29T23:24:00.736Z,49.04
2023-03-29T23:27:05.607Z,48.99
2023-03-29T23:30:11.855Z,48.83
2023-03-29T23:33:15.860Z,48.85
2023-03-29T23:36:21.627Z,48.66
2023-03-29T23:39:25.621Z,48.58
2023-03-29T23:42:29.649Z,48.79
2023-03-29T23:45:36.128Z,48.50
2023-03-29T23:48:40.082Z,48.63
2023-03-29T23:51:45.187Z,48.68
2023-03-29T23:54:50.373Z,48.65
2023-03-29T23:57:54.431Z,48.62
